sensor_id;sensor_type;location;lat;lon;timestamp;temperature;humidity
48515;DHT22;34309;47.260;2.796;2022-07-18T00:01:28;27.50;26.10
48515;DHT22;34309;47.260;2.796;2022-07-18T00:03:54;27.40;26.00
48515;DHT22;34309;47.260;2.796;2022-07-18T00:06:19;27.40;26.00
48515;DHT22;34309;47.260;2.796;2022-07-18T00:08:45;27.50;26.10
48515;DHT22;34309;47.260;2.796;2022-07-18T00:11:11;27.40;25.90
48515;DHT22;34309;47.260;2.796;2022-07-18T00:13:37;27.40;26.00
48515;DHT22;34309;47.260;2.796;2022-07-18T00:16:03;27.40;25.90
48515;DHT22;34309;47.260;2.796;2022-07-18T00:18:30;27.40;26.10
48515;DHT22;34309;47.260;2.796;2022-07-18T00:20:55;27.40;25.90
48515;DHT22;34309;47.260;2.796;2022-07-18T00:23:21;27.40;25.90
48515;DHT22;34309;47.260;2.796;2022-07-18T00:25:47;27.40;26.20
48515;DHT22;34309;47.260;2.796;2022-07-18T00:28:13;27.40;25.80
48515;DHT22;34309;47.260;2.796;2022-07-18T00:30:39;27.40;25.90
48515;DHT22;34309;47.260;2.796;2022-07-18T00:33:05;27.40;26.00
48515;DHT22;34309;47.260;2.796;2022-07-18T00:35:31;27.40;26.10
48515;DHT22;34309;47.260;2.796;2022-07-18T00:37:57;27.40;25.90
48515;DHT22;34309;47.260;2.796;2022-07-18T00:40:22;27.40;25.80
48515;DHT22;34309;47.260;2.796;2022-07-18T00:42:48;27.40;25.80
48515;DHT22;34309;47.260;2.796;2022-07-18T00:45:14;27.40;25.80
48515;DHT22;34309;47.260;2.796;2022-07-18T00:47:40;27.30;25.80
48515;DHT22;34309;47.260;2.796;2022-07-18T00:50:07;27.40;26.00
48515;DHT22;34309;47.260;2.796;2022-07-18T00:52:34;27.40;25.90
48515;DHT22;34309;47.260;2.796;2022-07-18T00:55:00;27.40;26.00
48515;DHT22;34309;47.260;2.796;2022-07-18T00:57:27;27.30;25.90
48515;DHT22;34309;47.260;2.796;2022-07-18T00:59:54;27.40;26.00
48515;DHT22;34309;47.260;2.796;2022-07-18T01:02:38;27.40;26.00
48515;DHT22;34309;47.260;2.796;2022-07-18T01:05:06;27.40;26.00
48515;DHT22;34309;47.260;2.796;2022-07-18T01:07:34;27.30;25.80
48515;DHT22;34309;47.260;2.796;2022-07-18T01:10:00;27.30;25.80
48515;DHT22;34309;47.260;2.796;2022-07-18T01:12:26;27.30;25.90
48515;DHT22;34309;47.260;2.796;2022-07-18T01:14:52;27.30;26.00
48515;DHT22;34309;47.260;2.796;2022-07-18T01:17:19;27.30;25.70
48515;DHT22;34309;47.260;2.796;2022-07-18T01:19:45;27.30;26.00
48515;DHT22;34309;47.260;2.796;2022-07-18T01:22:12;27.30;25.90
48515;DHT22;34309;47.260;2.796;2022-07-18T01:24:39;27.30;25.80
48515;DHT22;34309;47.260;2.796;2022-07-18T01:27:06;27.30;26.00
48515;DHT22;34309;47.260;2.796;2022-07-18T01:29:33;27.30;25.90
48515;DHT22;34309;47.260;2.796;2022-07-18T01:32:08;27.30;25.90
48515;DHT22;34309;47.260;2.796;2022-07-18T01:34:35;27.30;25.80
48515;DHT22;34309;47.260;2.796;2022-07-18T01:37:00;27.30;25.70
48515;DHT22;34309;47.260;2.796;2022-07-18T01:39:26;27.30;25.70
48515;DHT22;34309;47.260;2.796;2022-07-18T01:41:59;27.30;25.70
48515;DHT22;34309;47.260;2.796;2022-07-18T01:44:25;27.30;25.80
48515;DHT22;34309;47.260;2.796;2022-07-18T01:46:51;27.30;25.80
48515;DHT22;34309;47.260;2.796;2022-07-18T01:49:18;27.20;25.60
48515;DHT22;34309;47.260;2.796;2022-07-18T01:51:48;27.30;25.70
48515;DHT22;34309;47.260;2.796;2022-07-18T01:54:14;27.30;25.90
48515;DHT22;34309;47.260;2.796;2022-07-18T01:56:40;27.30;25.80
48515;DHT22;34309;47.260;2.796;2022-07-18T01:59:06;27.20;25.80
48515;DHT22;34309;47.260;2.796;2022-07-18T02:01:32;27.20;26.50
48515;DHT22;34309;47.260;2.796;2022-07-18T02:03:58;27.20;25.90
48515;DHT22;34309;47.260;2.796;2022-07-18T02:06:23;27.30;25.90
48515;DHT22;34309;47.260;2.796;2022-07-18T02:08:49;27.20;25.90
48515;DHT22;34309;47.260;2.796;2022-07-18T02:11:15;27.20;25.80
48515;DHT22;34309;47.260;2.796;2022-07-18T02:13:41;27.20;25.70
48515;DHT22;34309;47.260;2.796;2022-07-18T02:16:07;27.20;25.60
48515;DHT22;34309;47.260;2.796;2022-07-18T02:18:32;27.20;25.70
48515;DHT22;34309;47.260;2.796;2022-07-18T02:20:59;27.20;25.90
48515;DHT22;34309;47.260;2.796;2022-07-18T02:23:25;27.20;25.90
48515;DHT22;34309;47.260;2.796;2022-07-18T02:25:52;27.20;25.80
48515;DHT22;34309;47.260;2.796;2022-07-18T02:28:18;27.20;25.90
48515;DHT22;34309;47.260;2.796;2022-07-18T02:30:43;27.20;25.80
48515;DHT22;34309;47.260;2.796;2022-07-18T02:33:09;27.10;25.90
48515;DHT22;34309;47.260;2.796;2022-07-18T02:35:35;27.20;25.70
48515;DHT22;34309;47.260;2.796;2022-07-18T02:38:01;27.20;25.70
48515;DHT22;34309;47.260;2.796;2022-07-18T02:40:26;27.10;25.90
48515;DHT22;34309;47.260;2.796;2022-07-18T02:42:52;27.20;25.90
48515;DHT22;34309;47.260;2.796;2022-07-18T02:45:18;27.10;25.80
48515;DHT22;34309;47.260;2.796;2022-07-18T02:47:43;27.20;25.70
48515;DHT22;34309;47.260;2.796;2022-07-18T02:50:10;27.10;25.80
48515;DHT22;34309;47.260;2.796;2022-07-18T02:52:36;27.20;25.90
48515;DHT22;34309;47.260;2.796;2022-07-18T02:55:02;27.10;25.80
48515;DHT22;34309;47.260;2.796;2022-07-18T02:57:28;27.10;25.80
48515;DHT22;34309;47.260;2.796;2022-07-18T02:59:54;27.10;26.40
48515;DHT22;34309;47.260;2.796;2022-07-18T03:02:20;27.10;25.80
48515;DHT22;34309;47.260;2.796;2022-07-18T03:04:45;27.10;25.70
48515;DHT22;34309;47.260;2.796;2022-07-18T03:07:11;27.10;25.70
48515;DHT22;34309;47.260;2.796;2022-07-18T03:09:37;27.10;25.70
48515;DHT22;34309;47.260;2.796;2022-07-18T03:12:03;27.10;25.80
48515;DHT22;34309;47.260;2.796;2022-07-18T03:14:29;27.10;25.70
48515;DHT22;34309;47.260;2.796;2022-07-18T03:16:55;27.10;25.70
48515;DHT22;34309;47.260;2.796;2022-07-18T03:19:20;27.10;25.70
48515;DHT22;34309;47.260;2.796;2022-07-18T03:21:46;27.10;25.70
48515;DHT22;34309;47.260;2.796;2022-07-18T03:24:12;27.10;25.80
48515;DHT22;34309;47.260;2.796;2022-07-18T03:26:39;27.10;25.70
48515;DHT22;34309;47.260;2.796;2022-07-18T03:29:05;27.10;25.90
48515;DHT22;34309;47.260;2.796;2022-07-18T03:31:31;27.10;25.70
48515;DHT22;34309;47.260;2.796;2022-07-18T03:33:57;27.10;25.70
48515;DHT22;34309;47.260;2.796;2022-07-18T03:36:22;27.10;25.70
48515;DHT22;34309;47.260;2.796;2022-07-18T03:38:48;27.00;25.70
48515;DHT22;34309;47.260;2.796;2022-07-18T03:41:14;27.00;25.70
48515;DHT22;34309;47.260;2.796;2022-07-18T03:43:40;27.10;25.70
48515;DHT22;34309;47.260;2.796;2022-07-18T03:46:06;27.10;25.90
48515;DHT22;34309;47.260;2.796;2022-07-18T03:48:33;27.10;25.80
48515;DHT22;34309;47.260;2.796;2022-07-18T03:50:59;27.00;25.70
48515;DHT22;34309;47.260;2.796;2022-07-18T03:53:25;27.00;25.60
48515;DHT22;34309;47.260;2.796;2022-07-18T03:55:52;27.00;25.70
48515;DHT22;34309;47.260;2.796;2022-07-18T03:58:17;27.00;25.80
48515;DHT22;34309;47.260;2.796;2022-07-18T04:00:43;27.00;25.60
48515;DHT22;34309;47.260;2.796;2022-07-18T04:03:09;27.00;25.70
48515;DHT22;34309;47.260;2.796;2022-07-18T04:05:34;27.00;25.80
48515;DHT22;34309;47.260;2.796;2022-07-18T04:08:00;27.00;25.70
48515;DHT22;34309;47.260;2.796;2022-07-18T04:10:26;27.00;25.70
48515;DHT22;34309;47.260;2.796;2022-07-18T04:12:54;27.00;25.70
48515;DHT22;34309;47.260;2.796;2022-07-18T04:15:22;27.00;25.70
48515;DHT22;34309;47.260;2.796;2022-07-18T04:17:48;27.00;26.00
48515;DHT22;34309;47.260;2.796;2022-07-18T04:20:18;26.90;25.80
48515;DHT22;34309;47.260;2.796;2022-07-18T04:23:05;27.00;25.80
48515;DHT22;34309;47.260;2.796;2022-07-18T04:25:36;27.00;26.00
48515;DHT22;34309;47.260;2.796;2022-07-18T04:28:03;26.90;25.90
48515;DHT22;34309;47.260;2.796;2022-07-18T04:30:29;27.00;26.00
48515;DHT22;34309;47.260;2.796;2022-07-18T04:32:56;26.90;25.70
48515;DHT22;34309;47.260;2.796;2022-07-18T04:35:23;26.90;25.80
48515;DHT22;34309;47.260;2.796;2022-07-18T04:37:49;26.90;25.80
48515;DHT22;34309;47.260;2.796;2022-07-18T04:40:15;26.90;25.80
48515;DHT22;34309;47.260;2.796;2022-07-18T04:42:41;26.90;25.80
48515;DHT22;34309;47.260;2.796;2022-07-18T04:45:08;26.90;25.80
48515;DHT22;34309;47.260;2.796;2022-07-18T04:47:34;26.90;25.60
48515;DHT22;34309;47.260;2.796;2022-07-18T04:49:59;26.90;25.70
48515;DHT22;34309;47.260;2.796;2022-07-18T04:52:25;26.90;25.70
48515;DHT22;34309;47.260;2.796;2022-07-18T04:54:51;26.90;25.70
48515;DHT22;34309;47.260;2.796;2022-07-18T04:57:17;26.90;25.80
48515;DHT22;34309;47.260;2.796;2022-07-18T04:59:44;26.90;25.60
48515;DHT22;34309;47.260;2.796;2022-07-18T05:02:10;26.90;25.90
48515;DHT22;34309;47.260;2.796;2022-07-18T05:04:36;26.90;25.60
48515;DHT22;34309;47.260;2.796;2022-07-18T05:07:03;26.90;25.60
48515;DHT22;34309;47.260;2.796;2022-07-18T05:09:29;26.90;25.70
48515;DHT22;34309;47.260;2.796;2022-07-18T05:11:55;26.90;25.80
48515;DHT22;34309;47.260;2.796;2022-07-18T05:14:21;26.90;25.70
48515;DHT22;34309;47.260;2.796;2022-07-18T05:16:48;26.90;25.80
48515;DHT22;34309;47.260;2.796;2022-07-18T05:19:14;26.80;25.60
48515;DHT22;34309;47.260;2.796;2022-07-18T05:21:43;26.90;25.80
48515;DHT22;34309;47.260;2.796;2022-07-18T05:24:09;26.90;25.70
48515;DHT22;34309;47.260;2.796;2022-07-18T05:26:35;26.90;25.80
48515;DHT22;34309;47.260;2.796;2022-07-18T05:29:00;26.90;25.90
48515;DHT22;34309;47.260;2.796;2022-07-18T05:31:26;26.90;25.90
48515;DHT22;34309;47.260;2.796;2022-07-18T05:33:52;26.80;25.70
48515;DHT22;34309;47.260;2.796;2022-07-18T05:36:18;26.80;25.70
48515;DHT22;34309;47.260;2.796;2022-07-18T05:38:43;26.80;25.80
48515;DHT22;34309;47.260;2.796;2022-07-18T05:41:09;26.80;25.80
48515;DHT22;34309;47.260;2.796;2022-07-18T05:43:35;26.80;25.70
48515;DHT22;34309;47.260;2.796;2022-07-18T05:46:00;26.80;25.70
48515;DHT22;34309;47.260;2.796;2022-07-18T05:48:26;26.80;25.70
48515;DHT22;34309;47.260;2.796;2022-07-18T05:50:52;26.80;25.70
48515;DHT22;34309;47.260;2.796;2022-07-18T05:53:18;26.80;25.80
48515;DHT22;34309;47.260;2.796;2022-07-18T05:55:43;26.80;25.80
48515;DHT22;34309;47.260;2.796;2022-07-18T05:58:09;26.80;25.80
48515;DHT22;34309;47.260;2.796;2022-07-18T06:00:35;26.80;25.80
48515;DHT22;34309;47.260;2.796;2022-07-18T06:03:01;26.80;25.80
48515;DHT22;34309;47.260;2.796;2022-07-18T06:05:27;26.80;26.00
48515;DHT22;34309;47.260;2.796;2022-07-18T06:07:53;26.80;25.90
48515;DHT22;34309;47.260;2.796;2022-07-18T06:10:19;26.70;25.90
48515;DHT22;34309;47.260;2.796;2022-07-18T06:12:45;26.80;25.80
48515;DHT22;34309;47.260;2.796;2022-07-18T06:15:11;26.80;25.90
48515;DHT22;34309;47.260;2.796;2022-07-18T06:17:43;26.80;26.00
48515;DHT22;34309;47.260;2.796;2022-07-18T06:20:09;26.80;25.80
48515;DHT22;34309;47.260;2.796;2022-07-18T06:22:36;26.80;25.90
48515;DHT22;34309;47.260;2.796;2022-07-18T06:25:02;26.70;26.00
48515;DHT22;34309;47.260;2.796;2022-07-18T06:27:28;26.80;26.10
48515;DHT22;34309;47.260;2.796;2022-07-18T06:29:57;26.80;26.10
48515;DHT22;34309;47.260;2.796;2022-07-18T06:32:24;26.80;26.00
48515;DHT22;34309;47.260;2.796;2022-07-18T06:34:50;26.70;26.10
48515;DHT22;34309;47.260;2.796;2022-07-18T06:37:16;26.80;26.20
48515;DHT22;34309;47.260;2.796;2022-07-18T06:39:42;26.80;26.10
48515;DHT22;34309;47.260;2.796;2022-07-18T06:42:07;26.70;26.10
48515;DHT22;34309;47.260;2.796;2022-07-18T06:44:33;26.80;26.30
48515;DHT22;34309;47.260;2.796;2022-07-18T06:46:59;26.80;26.20
48515;DHT22;34309;47.260;2.796;2022-07-18T06:49:24;26.80;26.20
48515;DHT22;34309;47.260;2.796;2022-07-18T06:51:51;26.70;26.20
48515;DHT22;34309;47.260;2.796;2022-07-18T06:54:17;26.80;26.30
48515;DHT22;34309;47.260;2.796;2022-07-18T06:56:43;26.70;26.30
48515;DHT22;34309;47.260;2.796;2022-07-18T06:59:08;26.70;26.30
48515;DHT22;34309;47.260;2.796;2022-07-18T07:01:34;26.80;26.20
48515;DHT22;34309;47.260;2.796;2022-07-18T07:04:00;26.70;26.80
48515;DHT22;34309;47.260;2.796;2022-07-18T07:06:25;26.70;26.40
48515;DHT22;34309;47.260;2.796;2022-07-18T07:08:51;26.70;26.30
48515;DHT22;34309;47.260;2.796;2022-07-18T07:11:17;26.70;26.30
48515;DHT22;34309;47.260;2.796;2022-07-18T07:13:42;26.70;26.30
48515;DHT22;34309;47.260;2.796;2022-07-18T07:16:08;26.70;26.20
48515;DHT22;34309;47.260;2.796;2022-07-18T07:18:34;26.70;26.30
48515;DHT22;34309;47.260;2.796;2022-07-18T07:21:00;26.70;26.30
48515;DHT22;34309;47.260;2.796;2022-07-18T07:23:29;26.70;26.40
48515;DHT22;34309;47.260;2.796;2022-07-18T07:25:55;26.80;26.30
48515;DHT22;34309;47.260;2.796;2022-07-18T07:28:20;26.70;26.50
48515;DHT22;34309;47.260;2.796;2022-07-18T07:30:46;26.70;26.50
48515;DHT22;34309;47.260;2.796;2022-07-18T07:33:21;26.80;26.50
48515;DHT22;34309;47.260;2.796;2022-07-18T07:35:46;26.70;26.60
48515;DHT22;34309;47.260;2.796;2022-07-18T07:38:12;26.70;26.40
48515;DHT22;34309;47.260;2.796;2022-07-18T07:40:43;26.80;26.30
48515;DHT22;34309;47.260;2.796;2022-07-18T07:43:11;26.70;26.60
48515;DHT22;34309;47.260;2.796;2022-07-18T07:45:37;26.70;26.40
48515;DHT22;34309;47.260;2.796;2022-07-18T07:48:04;26.70;26.30
48515;DHT22;34309;47.260;2.796;2022-07-18T07:50:30;26.80;26.40
48515;DHT22;34309;47.260;2.796;2022-07-18T07:52:57;26.70;26.40
48515;DHT22;34309;47.260;2.796;2022-07-18T07:55:23;26.80;26.30
48515;DHT22;34309;47.260;2.796;2022-07-18T07:57:57;26.70;26.30
48515;DHT22;34309;47.260;2.796;2022-07-18T08:00:23;26.70;26.40
48515;DHT22;34309;47.260;2.796;2022-07-18T08:03:00;26.70;26.30
48515;DHT22;34309;47.260;2.796;2022-07-18T08:06:00;26.80;26.50
48515;DHT22;34309;47.260;2.796;2022-07-18T08:08:26;26.80;26.50
48515;DHT22;34309;47.260;2.796;2022-07-18T08:10:51;26.70;26.30
48515;DHT22;34309;47.260;2.796;2022-07-18T08:13:18;26.70;26.30
48515;DHT22;34309;47.260;2.796;2022-07-18T08:15:44;26.80;26.60
48515;DHT22;34309;47.260;2.796;2022-07-18T08:18:10;26.80;26.40
48515;DHT22;34309;47.260;2.796;2022-07-18T08:20:36;26.80;26.50
48515;DHT22;34309;47.260;2.796;2022-07-18T08:23:10;26.70;26.40
48515;DHT22;34309;47.260;2.796;2022-07-18T08:25:38;26.70;26.30
48515;DHT22;34309;47.260;2.796;2022-07-18T08:28:05;26.80;26.50
48515;DHT22;34309;47.260;2.796;2022-07-18T08:30:31;26.80;26.30
48515;DHT22;34309;47.260;2.796;2022-07-18T08:32:58;26.70;26.40
48515;DHT22;34309;47.260;2.796;2022-07-18T08:35:24;26.70;26.40
48515;DHT22;34309;47.260;2.796;2022-07-18T08:37:50;26.70;26.40
48515;DHT22;34309;47.260;2.796;2022-07-18T08:40:16;26.80;26.50
48515;DHT22;34309;47.260;2.796;2022-07-18T08:42:42;26.80;26.50
48515;DHT22;34309;47.260;2.796;2022-07-18T08:45:08;26.80;26.60
48515;DHT22;34309;47.260;2.796;2022-07-18T08:47:34;26.80;26.60
48515;DHT22;34309;47.260;2.796;2022-07-18T08:50:00;26.80;26.60
48515;DHT22;34309;47.260;2.796;2022-07-18T08:52:27;26.80;26.60
48515;DHT22;34309;47.260;2.796;2022-07-18T08:54:54;26.80;26.40
48515;DHT22;34309;47.260;2.796;2022-07-18T08:57:21;26.80;26.60
48515;DHT22;34309;47.260;2.796;2022-07-18T08:59:50;26.80;26.60
48515;DHT22;34309;47.260;2.796;2022-07-18T09:02:16;26.80;26.50
48515;DHT22;34309;47.260;2.796;2022-07-18T09:04:43;26.80;26.60
48515;DHT22;34309;47.260;2.796;2022-07-18T09:07:22;26.80;26.60
48515;DHT22;34309;47.260;2.796;2022-07-18T09:09:55;26.80;26.60
48515;DHT22;34309;47.260;2.796;2022-07-18T09:12:24;26.80;26.50
48515;DHT22;34309;47.260;2.796;2022-07-18T09:14:50;26.80;26.60
48515;DHT22;34309;47.260;2.796;2022-07-18T09:17:22;26.80;26.50
48515;DHT22;34309;47.260;2.796;2022-07-18T09:20:03;26.80;26.60
48515;DHT22;34309;47.260;2.796;2022-07-18T09:22:32;26.80;26.50
48515;DHT22;34309;47.260;2.796;2022-07-18T09:25:10;26.80;26.60
48515;DHT22;34309;47.260;2.796;2022-07-18T09:32:45;26.80;26.60
48515;DHT22;34309;47.260;2.796;2022-07-18T09:35:17;26.80;27.30
48515;DHT22;34309;47.260;2.796;2022-07-18T09:37:59;26.80;26.50
48515;DHT22;34309;47.260;2.796;2022-07-18T09:40:31;26.80;26.60
48515;DHT22;34309;47.260;2.796;2022-07-18T09:43:06;26.80;26.60
48515;DHT22;34309;47.260;2.796;2022-07-18T09:45:37;26.80;26.80
48515;DHT22;34309;47.260;2.796;2022-07-18T09:48:06;26.80;26.80
48515;DHT22;34309;47.260;2.796;2022-07-18T09:50:44;26.80;26.90
48515;DHT22;34309;47.260;2.796;2022-07-18T09:53:16;26.90;26.60
48515;DHT22;34309;47.260;2.796;2022-07-18T09:55:50;26.90;26.90
48515;DHT22;34309;47.260;2.796;2022-07-18T09:58:21;26.90;26.70
48515;DHT22;34309;47.260;2.796;2022-07-18T10:00:48;26.80;26.70
48515;DHT22;34309;47.260;2.796;2022-07-18T10:03:15;26.80;26.70
48515;DHT22;34309;47.260;2.796;2022-07-18T10:05:41;26.90;26.80
48515;DHT22;34309;47.260;2.796;2022-07-18T10:08:10;26.90;27.00
48515;DHT22;34309;47.260;2.796;2022-07-18T10:10:37;26.90;26.90
48515;DHT22;34309;47.260;2.796;2022-07-18T10:13:04;26.90;26.90
48515;DHT22;34309;47.260;2.796;2022-07-18T10:15:32;26.90;26.70
48515;DHT22;34309;47.260;2.796;2022-07-18T10:18:01;26.90;26.90
48515;DHT22;34309;47.260;2.796;2022-07-18T10:20:43;26.90;26.90
48515;DHT22;34309;47.260;2.796;2022-07-18T10:23:19;26.90;27.00
48515;DHT22;34309;47.260;2.796;2022-07-18T10:28:30;26.90;26.80
48515;DHT22;34309;47.260;2.796;2022-07-18T10:31:12;26.90;26.90
48515;DHT22;34309;47.260;2.796;2022-07-18T10:33:46;26.90;26.80
48515;DHT22;34309;47.260;2.796;2022-07-18T10:36:15;26.90;26.60
48515;DHT22;34309;47.260;2.796;2022-07-18T10:41:29;26.90;26.80
48515;DHT22;34309;47.260;2.796;2022-07-18T10:43:55;26.90;26.80
48515;DHT22;34309;47.260;2.796;2022-07-18T10:46:20;26.90;26.80
48515;DHT22;34309;47.260;2.796;2022-07-18T10:48:53;26.90;26.90
48515;DHT22;34309;47.260;2.796;2022-07-18T10:51:28;26.90;26.80
48515;DHT22;34309;47.260;2.796;2022-07-18T10:56:20;27.00;26.90
48515;DHT22;34309;47.260;2.796;2022-07-18T10:58:48;26.90;27.00
48515;DHT22;34309;47.260;2.796;2022-07-18T11:01:17;26.90;26.90
48515;DHT22;34309;47.260;2.796;2022-07-18T11:03:43;27.00;27.00
48515;DHT22;34309;47.260;2.796;2022-07-18T11:06:09;27.00;26.90
48515;DHT22;34309;47.260;2.796;2022-07-18T11:08:35;27.00;26.90
48515;DHT22;34309;47.260;2.796;2022-07-18T11:11:05;27.00;27.10
48515;DHT22;34309;47.260;2.796;2022-07-18T11:13:34;27.00;27.00
48515;DHT22;34309;47.260;2.796;2022-07-18T11:16:21;27.00;27.00
48515;DHT22;34309;47.260;2.796;2022-07-18T11:21:42;27.00;27.00
48515;DHT22;34309;47.260;2.796;2022-07-18T11:24:10;27.00;27.20
48515;DHT22;34309;47.260;2.796;2022-07-18T11:26:43;27.00;26.90
48515;DHT22;34309;47.260;2.796;2022-07-18T11:29:11;27.00;26.80
48515;DHT22;34309;47.260;2.796;2022-07-18T11:31:51;27.00;26.90
48515;DHT22;34309;47.260;2.796;2022-07-18T11:34:18;27.00;26.90
48515;DHT22;34309;47.260;2.796;2022-07-18T11:36:45;27.10;27.10
48515;DHT22;34309;47.260;2.796;2022-07-18T11:39:12;27.00;27.00
48515;DHT22;34309;47.260;2.796;2022-07-18T11:41:40;27.10;27.20
48515;DHT22;34309;47.260;2.796;2022-07-18T11:44:19;27.10;27.00
48515;DHT22;34309;47.260;2.796;2022-07-18T11:47:01;27.00;27.00
48515;DHT22;34309;47.260;2.796;2022-07-18T11:49:27;27.10;27.10
48515;DHT22;34309;47.260;2.796;2022-07-18T11:51:53;27.10;27.10
48515;DHT22;34309;47.260;2.796;2022-07-18T11:54:24;27.10;27.00
48515;DHT22;34309;47.260;2.796;2022-07-18T11:56:52;27.10;27.20
48515;DHT22;34309;47.260;2.796;2022-07-18T11:59:19;27.10;27.30
48515;DHT22;34309;47.260;2.796;2022-07-18T12:01:45;27.10;27.10
48515;DHT22;34309;47.260;2.796;2022-07-18T12:04:22;27.10;27.10
48515;DHT22;34309;47.260;2.796;2022-07-18T12:07:13;27.10;27.00
48515;DHT22;34309;47.260;2.796;2022-07-18T12:09:40;27.10;27.10
48515;DHT22;34309;47.260;2.796;2022-07-18T12:12:10;27.10;27.10
48515;DHT22;34309;47.260;2.796;2022-07-18T12:14:36;27.10;27.10
48515;DHT22;34309;47.260;2.796;2022-07-18T12:17:05;27.10;27.10
48515;DHT22;34309;47.260;2.796;2022-07-18T12:19:36;27.20;27.20
48515;DHT22;34309;47.260;2.796;2022-07-18T12:35:29;27.20;27.40
48515;DHT22;34309;47.260;2.796;2022-07-18T12:38:05;27.20;27.10
48515;DHT22;34309;47.260;2.796;2022-07-18T12:40:58;27.20;27.30
48515;DHT22;34309;47.260;2.796;2022-07-18T12:43:28;27.20;27.40
48515;DHT22;34309;47.260;2.796;2022-07-18T12:45:55;27.20;27.10
48515;DHT22;34309;47.260;2.796;2022-07-18T12:48:22;27.20;27.10
48515;DHT22;34309;47.260;2.796;2022-07-18T12:51:00;27.20;27.20
48515;DHT22;34309;47.260;2.796;2022-07-18T12:53:30;27.20;27.20
48515;DHT22;34309;47.260;2.796;2022-07-18T12:55:56;27.30;27.40
48515;DHT22;34309;47.260;2.796;2022-07-18T12:58:22;27.20;27.40
48515;DHT22;34309;47.260;2.796;2022-07-18T13:00:48;27.20;27.40
48515;DHT22;34309;47.260;2.796;2022-07-18T13:03:15;27.20;27.20
48515;DHT22;34309;47.260;2.796;2022-07-18T13:05:41;27.30;27.30
48515;DHT22;34309;47.260;2.796;2022-07-18T13:08:07;27.30;27.30
48515;DHT22;34309;47.260;2.796;2022-07-18T13:10:34;27.30;27.30
48515;DHT22;34309;47.260;2.796;2022-07-18T13:13:04;27.30;27.50
48515;DHT22;34309;47.260;2.796;2022-07-18T13:15:31;27.30;27.40
48515;DHT22;34309;47.260;2.796;2022-07-18T13:17:57;27.30;27.40
48515;DHT22;34309;47.260;2.796;2022-07-18T13:20:23;27.30;27.40
48515;DHT22;34309;47.260;2.796;2022-07-18T13:22:49;27.30;27.40
48515;DHT22;34309;47.260;2.796;2022-07-18T13:25:14;27.30;27.30
48515;DHT22;34309;47.260;2.796;2022-07-18T13:27:40;27.30;27.40
48515;DHT22;34309;47.260;2.796;2022-07-18T13:30:07;27.40;27.50
48515;DHT22;34309;47.260;2.796;2022-07-18T13:32:34;27.30;27.40
48515;DHT22;34309;47.260;2.796;2022-07-18T13:35:00;27.30;27.30
48515;DHT22;34309;47.260;2.796;2022-07-18T13:37:26;27.30;27.30
48515;DHT22;34309;47.260;2.796;2022-07-18T13:39:52;27.40;27.40
48515;DHT22;34309;47.260;2.796;2022-07-18T13:42:18;27.40;27.50
48515;DHT22;34309;47.260;2.796;2022-07-18T13:44:43;27.40;27.60
48515;DHT22;34309;47.260;2.796;2022-07-18T13:47:15;27.40;27.40
48515;DHT22;34309;47.260;2.796;2022-07-18T13:49:41;27.40;27.50
48515;DHT22;34309;47.260;2.796;2022-07-18T13:52:07;27.40;27.60
48515;DHT22;34309;47.260;2.796;2022-07-18T13:54:33;27.40;27.50
48515;DHT22;34309;47.260;2.796;2022-07-18T13:56:59;27.40;27.50
48515;DHT22;34309;47.260;2.796;2022-07-18T13:59:24;27.40;27.40
48515;DHT22;34309;47.260;2.796;2022-07-18T14:01:50;27.50;27.40
48515;DHT22;34309;47.260;2.796;2022-07-18T14:04:17;27.50;27.70
48515;DHT22;34309;47.260;2.796;2022-07-18T14:06:44;27.50;27.60
48515;DHT22;34309;47.260;2.796;2022-07-18T14:09:10;27.50;27.80
48515;DHT22;34309;47.260;2.796;2022-07-18T14:11:36;27.50;27.50
48515;DHT22;34309;47.260;2.796;2022-07-18T14:14:02;27.50;27.60
48515;DHT22;34309;47.260;2.796;2022-07-18T14:16:29;27.50;27.60
48515;DHT22;34309;47.260;2.796;2022-07-18T14:18:55;27.50;27.50
48515;DHT22;34309;47.260;2.796;2022-07-18T14:21:21;27.50;27.60
48515;DHT22;34309;47.260;2.796;2022-07-18T14:23:47;27.50;27.50
48515;DHT22;34309;47.260;2.796;2022-07-18T14:26:12;27.50;27.50
48515;DHT22;34309;47.260;2.796;2022-07-18T14:28:38;27.50;27.50
48515;DHT22;34309;47.260;2.796;2022-07-18T14:31:04;27.60;27.50
48515;DHT22;34309;47.260;2.796;2022-07-18T14:33:30;27.60;27.60
48515;DHT22;34309;47.260;2.796;2022-07-18T14:35:55;27.60;27.60
48515;DHT22;34309;47.260;2.796;2022-07-18T14:38:21;27.60;27.60
48515;DHT22;34309;47.260;2.796;2022-07-18T14:40:47;27.60;27.50
48515;DHT22;34309;47.260;2.796;2022-07-18T14:43:13;27.60;27.70
48515;DHT22;34309;47.260;2.796;2022-07-18T14:45:39;27.60;27.60
48515;DHT22;34309;47.260;2.796;2022-07-18T14:48:04;27.60;27.50
48515;DHT22;34309;47.260;2.796;2022-07-18T14:50:30;27.60;27.60
48515;DHT22;34309;47.260;2.796;2022-07-18T14:52:56;27.60;27.30
48515;DHT22;34309;47.260;2.796;2022-07-18T14:55:22;27.60;27.40
48515;DHT22;34309;47.260;2.796;2022-07-18T14:57:47;27.60;27.40
48515;DHT22;34309;47.260;2.796;2022-07-18T15:00:13;27.60;27.40
48515;DHT22;34309;47.260;2.796;2022-07-18T15:02:39;27.60;28.00
48515;DHT22;34309;47.260;2.796;2022-07-18T15:05:05;27.60;27.40
48515;DHT22;34309;47.260;2.796;2022-07-18T15:07:32;27.70;27.50
48515;DHT22;34309;47.260;2.796;2022-07-18T15:09:58;27.70;27.50
48515;DHT22;34309;47.260;2.796;2022-07-18T15:12:24;27.70;27.50
48515;DHT22;34309;47.260;2.796;2022-07-18T15:14:50;27.60;27.40
48515;DHT22;34309;47.260;2.796;2022-07-18T15:17:16;27.70;27.50
48515;DHT22;34309;47.260;2.796;2022-07-18T15:19:42;27.70;27.60
48515;DHT22;34309;47.260;2.796;2022-07-18T15:22:07;27.70;27.50
48515;DHT22;34309;47.260;2.796;2022-07-18T15:24:33;27.70;27.50
48515;DHT22;34309;47.260;2.796;2022-07-18T15:27:00;27.70;27.40
48515;DHT22;34309;47.260;2.796;2022-07-18T15:29:26;27.70;27.60
48515;DHT22;34309;47.260;2.796;2022-07-18T15:31:52;27.70;27.40
48515;DHT22;34309;47.260;2.796;2022-07-18T15:34:18;27.70;27.60
48515;DHT22;34309;47.260;2.796;2022-07-18T15:36:44;27.70;27.50
48515;DHT22;34309;47.260;2.796;2022-07-18T15:39:09;27.80;27.60
48515;DHT22;34309;47.260;2.796;2022-07-18T15:41:35;27.70;27.70
48515;DHT22;34309;47.260;2.796;2022-07-18T15:44:01;27.70;27.50
48515;DHT22;34309;47.260;2.796;2022-07-18T15:46:27;27.70;27.70
48515;DHT22;34309;47.260;2.796;2022-07-18T15:48:52;27.80;27.60
48515;DHT22;34309;47.260;2.796;2022-07-18T15:51:19;27.80;27.70
48515;DHT22;34309;47.260;2.796;2022-07-18T15:53:44;27.80;27.50
48515;DHT22;34309;47.260;2.796;2022-07-18T15:56:10;27.80;27.40
48515;DHT22;34309;47.260;2.796;2022-07-18T15:58:36;27.80;27.30
48515;DHT22;34309;47.260;2.796;2022-07-18T16:01:02;27.80;27.40